CZST Airport Information

Runway Information
Runway 18 Length 3900 ft width 75 ft
Elevation 0 ft Threshold 0 ft Heading 194
Runway 36 Length 3900 ft Width 75 ft
Elevation 0 ft Threshold 0 ft Heading 14
Airport Frequencies
Type ATF Name ATF Frequency 123.2 MHZ
Airport Navaids
Airport Weather Information & NOTAM
ADDS - METARS form results

(1516 UTC 01 December 2020)
Data provider http://aviationweather.gov/metar/data/
 
METAR text: CZST 011500Z VRB02KT 3SM -RASN OVC010 00/00 A3019 RMK SC8 /S01 AFT 0Z/CLIMAT 0.8/-0.2/10.0 SLP226
Conditions at: CZST (STEWART AIRPORT , BC, CA) observed 1500 UTC 01 December 2020
Temperature: 0.0°C (32°F)
Dewpoint: 0.0°C (32°F) [RH = 100%]
Pressure (altimeter): 30.19 inches Hg (1022.4 mb)
[Sea-level pressure: 1022.6 mb]
Winds: variable direction winds at 2 MPH (2 knots; 1.0 m/s)
Visibility: 3 miles ( 5 km)
Ceiling: 1000 feet AGL
Clouds: overcast cloud deck at 1000 feet AGL
Weather: -RA -SN  (light rain, light snow)